Time;durP1;ratioP1;P1;durP2;ratioP2;P2;SDS_P1;SDS_P2;PMS_P1;PMS_P2;Temp;Humidity;BMP_temperature;BMP_pressure;BME280_temperature;BME280_humidity;BME280_pressure;Samples;Min_cycle;Max_cycle;Signal;HPM_P1;HPM_P2
2022/02/15 00:01:17;;;;;;;7.28;2.90;;;6.10;99.90;;;;;;5039446;28;20060;-63
2022/02/15 00:03:44;;;;;;;15.07;4.25;;;6.10;99.90;;;;;;5022268;28;20515;-63
2022/02/15 00:06:10;;;;;;;6.63;2.38;;;6.20;99.90;;;;;;5022639;28;20415;-63
2022/02/15 00:08:36;;;;;;;9.52;2.80;;;6.20;99.90;;;;;;5023092;28;20115;-62
2022/02/15 00:11:02;;;;;;;9.52;2.80;;;6.20;99.90;;;;;;5038828;28;20606;-66
2022/02/15 00:13:28;;;;;;;9.80;2.78;;;6.20;99.90;;;;;;5020555;28;20465;-65
2022/02/15 00:15:54;;;;;;;5.45;2.50;;;6.20;99.90;;;;;;5035959;28;20051;-65
2022/02/15 00:18:20;;;;;;;5.40;2.75;;;6.20;99.90;;;;;;5023230;28;20048;-65
2022/02/15 00:20:46;;;;;;;7.53;2.72;;;6.20;99.90;;;;;;5023211;28;20045;-65
2022/02/15 00:23:12;;;;;;;11.95;3.08;;;6.20;99.90;;;;;;5005456;28;20135;-65
2022/02/15 00:25:39;;;;;;;9.50;2.90;;;6.20;99.90;;;;;;5039118;28;20045;-65
2022/02/15 00:28:05;;;;;;;7.70;2.90;;;6.20;99.90;;;;;;5021776;28;20052;-66
2022/02/15 00:30:31;;;;;;;10.90;3.45;;;6.20;99.90;;;;;;5007090;28;20437;-65
2022/02/15 00:32:57;;;;;;;10.88;3.05;;;6.20;99.90;;;;;;5037705;28;20053;-65
2022/02/15 00:35:23;;;;;;;11.18;2.88;;;6.20;99.90;;;;;;5036728;28;20049;-66
2022/02/15 00:37:49;;;;;;;8.98;3.30;;;6.20;99.90;;;;;;5019010;28;20045;-65
2022/02/15 00:40:16;;;;;;;11.90;3.10;;;6.20;99.90;;;;;;5005448;28;20072;-65
2022/02/15 00:42:42;;;;;;;7.45;2.95;;;6.20;99.90;;;;;;5038490;28;20045;-66
2022/02/15 00:45:09;;;;;;;11.85;2.85;;;6.20;99.90;;;;;;5022051;28;20048;-68
2022/02/15 00:47:36;;;;;;;9.85;3.28;;;6.20;99.90;;;;;;5022473;28;20550;-63
2022/02/15 00:50:03;;;;;;;10.90;2.85;;;6.20;99.90;;;;;;5022590;28;20049;-63
2022/02/15 00:52:29;;;;;;;9.80;3.17;;;6.20;99.90;;;;;;5024148;28;20056;-64
2022/02/15 00:54:56;;;;;;;7.65;2.83;;;6.20;99.90;;;;;;5022746;28;20041;-63
2022/02/15 00:57:23;;;;;;;10.07;2.90;;;6.20;99.90;;;;;;5023784;28;20045;-63
2022/02/15 00:59:50;;;;;;;9.68;2.55;;;6.30;99.90;;;;;;5037880;28;20052;-62
2022/02/15 01:02:16;;;;;;;10.07;2.70;;;6.20;99.90;;;;;;5022656;28;20420;-63
2022/02/15 01:04:42;;;;;;;9.95;3.53;;;6.30;99.90;;;;;;5039610;28;20492;-63
2022/02/15 01:07:09;;;;;;;11.48;2.95;;;6.30;99.90;;;;;;5038364;28;20041;-63
2022/02/15 01:09:35;;;;;;;13.05;3.03;;;6.30;99.90;;;;;;5016393;28;20049;-63
2022/02/15 01:12:02;;;;;;;8.43;3.25;;;6.30;99.90;;;;;;5042347;28;20102;-63
2022/02/15 01:14:28;;;;;;;8.50;3.13;;;6.30;99.90;;;;;;5041142;28;21497;-63
2022/02/15 01:16:54;;;;;;;11.80;3.38;;;6.20;99.90;;;;;;5008990;28;20045;-63
2022/02/15 01:19:20;;;;;;;8.40;3.70;;;6.30;99.90;;;;;;5024108;28;20444;-63
2022/02/15 01:21:47;;;;;;;8.40;3.53;;;6.30;99.90;;;;;;5009803;28;20403;-63
2022/02/15 01:24:13;;;;;;;12.20;3.60;;;6.30;99.90;;;;;;5040833;28;20041;-62
2022/02/15 01:26:39;;;;;;;12.43;4.00;;;6.30;99.90;;;;;;5041556;28;20841;-63
2022/02/15 01:29:05;;;;;;;15.60;4.68;;;6.30;99.90;;;;;;5040700;28;20045;-63
2022/02/15 01:31:32;;;;;;;10.45;4.47;;;6.30;99.90;;;;;;5042197;28;20068;-63
2022/02/15 01:33:58;;;;;;;10.52;4.20;;;6.30;99.90;;;;;;5041614;28;20045;-62
2022/02/15 01:36:24;;;;;;;13.48;4.07;;;6.30;99.90;;;;;;4992419;28;20427;-63
2022/02/15 01:38:50;;;;;;;14.80;4.57;;;6.30;99.90;;;;;;5041773;28;20587;-62
2022/02/15 01:41:17;;;;;;;16.38;4.75;;;6.30;99.90;;;;;;5009445;28;20049;-63
2022/02/15 01:43:47;;;;;;;11.52;4.85;;;6.30;99.90;;;;;;5024851;28;20165;-62
2022/02/15 01:46:14;;;;;;;13.50;5.18;;;6.30;99.90;;;;;;5025609;28;20049;-63
2022/02/15 01:48:42;;;;;;;9.82;5.05;;;6.30;99.90;;;;;;5039868;28;20095;-63
2022/02/15 01:51:09;;;;;;;9.52;5.05;;;6.30;99.90;;;;;;5008793;28;20146;-63
2022/02/15 01:53:35;;;;;;;13.95;5.85;;;6.30;99.90;;;;;;5059309;28;20240;-62
2022/02/15 01:56:01;;;;;;;15.63;5.72;;;6.30;99.90;;;;;;5026243;28;20152;-62
2022/02/15 01:58:33;;;;;;;10.80;6.18;;;6.30;99.90;;;;;;4993432;28;20036;-63
2022/02/15 02:01:03;;;;;;;14.85;6.60;;;6.30;99.90;;;;;;5042315;28;20044;-66
2022/02/15 02:03:38;;;;;;;12.68;5.65;;;6.30;99.90;;;;;;5040939;28;20055;-65
2022/02/15 02:06:05;;;;;;;12.45;5.38;;;6.20;99.90;;;;;;5023541;28;20060;-65
2022/02/15 02:08:34;;;;;;;14.70;5.72;;;6.30;99.90;;;;;;5023878;28;20533;-65
2022/02/15 02:11:01;;;;;;;13.23;6.03;;;6.20;99.90;;;;;;5024393;28;20135;-66
2022/02/15 02:13:45;;;;;;;11.68;5.70;;;6.30;99.90;;;;;;5040746;28;20045;-66
2022/02/15 02:16:11;;;;;;;14.50;6.50;;;6.30;99.90;;;;;;5025140;28;20537;-63
2022/02/15 02:18:38;;;;;;;10.57;5.88;;;6.30;99.90;;;;;;5039529;28;20083;-63
2022/02/15 02:21:06;;;;;;;14.20;6.25;;;6.30;99.90;;;;;;5009761;28;20052;-63
2022/02/15 02:23:34;;;;;;;14.40;5.75;;;6.30;99.90;;;;;;5023458;28;20546;-63
2022/02/15 02:26:07;;;;;;;13.60;5.90;;;6.30;99.90;;;;;;5009771;28;20044;-63
2022/02/15 02:28:37;;;;;;;14.77;5.78;;;6.30;99.90;;;;;;5008119;28;20044;-63
2022/02/15 02:31:03;;;;;;;13.50;5.57;;;6.30;99.90;;;;;;5025215;28;20503;-63
2022/02/15 02:33:33;;;;;;;13.63;5.82;;;6.30;99.90;;;;;;5007220;28;20088;-63
2022/02/15 02:36:00;;;;;;;16.58;5.05;;;6.30;99.90;;;;;;5039914;28;20045;-63
2022/02/15 02:38:27;;;;;;;14.80;5.88;;;6.30;99.90;;;;;;5006860;28;20045;-63
2022/02/15 02:40:58;;;;;;;14.32;5.22;;;6.40;99.90;;;;;;4992017;28;20049;-63
2022/02/15 02:43:28;;;;;;;10.88;5.15;;;6.30;99.90;;;;;;5005058;28;20055;-65
2022/02/15 02:45:55;;;;;;;15.52;5.25;;;6.40;99.90;;;;;;5041140;28;20048;-65
2022/02/15 02:48:21;;;;;;;12.70;5.05;;;6.40;99.90;;;;;;5007259;28;20041;-66
2022/02/15 02:50:49;;;;;;;9.23;4.60;;;6.40;99.90;;;;;;5023590;28;20442;-66
2022/02/15 02:53:18;;;;;;;12.65;4.22;;;6.40;99.90;;;;;;5023864;28;20183;-62
2022/02/15 02:55:45;;;;;;;12.70;4.72;;;6.40;99.90;;;;;;5040198;28;20052;-66
2022/02/15 02:58:13;;;;;;;11.35;4.50;;;6.40;99.90;;;;;;5040951;28;20467;-66
2022/02/15 03:00:40;;;;;;;12.77;4.22;;;6.40;99.90;;;;;;5024489;28;20090;-65
2022/02/15 03:03:17;;;;;;;13.15;5.47;;;6.40;99.90;;;;;;5006539;28;20049;-63
2022/02/15 03:05:47;;;;;;;13.10;4.15;;;6.40;99.90;;;;;;5023167;28;20045;-63
2022/02/15 03:08:15;;;;;;;12.82;4.93;;;6.50;99.90;;;;;;5007490;28;20057;-63
2022/02/15 03:10:41;;;;;;;11.10;4.68;;;6.50;99.90;;;;;;5023048;28;20127;-66
2022/02/15 03:13:13;;;;;;;15.63;5.35;;;6.50;99.90;;;;;;5005382;28;20059;-63
2022/02/15 03:15:40;;;;;;;11.18;4.45;;;6.40;99.90;;;;;;5022487;28;20058;-63
2022/02/15 03:18:06;;;;;;;14.38;5.03;;;6.50;99.90;;;;;;5004950;28;20064;-63
2022/02/15 03:20:32;;;;;;;14.35;5.15;;;6.40;99.90;;;;;;5023828;28;20048;-65
2022/02/15 03:22:59;;;;;;;13.10;5.00;;;6.50;99.90;;;;;;5006355;28;20060;-63
2022/02/15 03:25:25;;;;;;;14.77;5.03;;;6.50;99.90;;;;;;5023047;28;20125;-63
2022/02/15 03:27:52;;;;;;;21.00;6.43;;;6.50;99.90;;;;;;5038505;28;20407;-66
2022/02/15 03:30:19;;;;;;;15.57;5.35;;;6.50;99.90;;;;;;5038682;28;20179;-65
2022/02/15 03:32:45;;;;;;;15.63;4.75;;;6.50;99.90;;;;;;5006844;28;20052;-65
2022/02/15 03:35:12;;;;;;;15.15;5.35;;;6.50;99.90;;;;;;5022299;28;20114;-65
2022/02/15 03:37:41;;;;;;;13.98;6.32;;;6.40;99.90;;;;;;5022135;28;20116;-62
2022/02/15 03:40:08;;;;;;;18.17;6.30;;;6.40;99.90;;;;;;5023231;28;20123;-62
2022/02/15 03:45:19;;;;;;;15.05;6.18;;;6.40;99.90;;;;;;5006823;28;21320;-62
2022/02/15 03:48:07;;;;;;;16.02;7.80;;;6.30;99.90;;;;;;5023007;28;20049;-62
2022/02/15 03:50:34;;;;;;;15.88;7.53;;;6.30;99.90;;;;;;5040260;28;20048;-66
2022/02/15 03:53:02;;;;;;;14.05;7.63;;;6.30;99.90;;;;;;5023325;28;20060;-63
2022/02/15 03:55:29;;;;;;;16.58;7.68;;;6.30;99.90;;;;;;5006672;28;20110;-63
2022/02/15 03:57:55;;;;;;;18.30;7.78;;;6.30;99.90;;;;;;4990515;28;20053;-62
2022/02/15 04:00:22;;;;;;;20.52;8.63;;;6.30;99.90;;;;;;5021254;28;20041;-63
2022/02/15 04:02:57;;;;;;;18.50;8.38;;;6.30;99.90;;;;;;5007456;28;20045;-66
2022/02/15 04:05:24;;;;;;;18.95;9.38;;;6.30;99.90;;;;;;5006183;28;20045;-63
2022/02/15 04:07:50;;;;;;;14.70;9.02;;;6.20;99.90;;;;;;5039905;28;20063;-66
2022/02/15 04:10:17;;;;;;;18.65;8.35;;;6.20;99.90;;;;;;5039895;28;20049;-63
2022/02/15 04:12:46;;;;;;;15.85;7.55;;;6.20;99.90;;;;;;5039497;28;20667;-63
2022/02/15 04:15:13;;;;;;;19.63;8.93;;;6.20;99.90;;;;;;5022820;28;20439;-63
2022/02/15 04:17:45;;;;;;;16.65;8.45;;;6.20;99.90;;;;;;5007292;28;20057;-66
2022/02/15 04:20:13;;;;;;;12.85;7.97;;;6.10;99.90;;;;;;5022058;28;20060;-66
2022/02/15 04:22:41;;;;;;;16.95;8.90;;;6.10;99.90;;;;;;5022175;28;20048;-66
2022/02/15 04:25:10;;;;;;;17.60;8.88;;;6.10;99.90;;;;;;5039338;28;20076;-66
2022/02/15 04:27:37;;;;;;;17.52;9.25;;;6.10;99.90;;;;;;5021534;28;20045;-66
2022/02/15 04:30:07;;;;;;;16.20;8.25;;;6.10;99.90;;;;;;5037844;28;20045;-66
2022/02/15 04:32:34;;;;;;;16.23;9.85;;;6.10;99.90;;;;;;5005191;28;20041;-66
2022/02/15 04:35:01;;;;;;;17.25;9.43;;;6.10;99.90;;;;;;5007071;28;20068;-62
2022/02/15 04:37:31;;;;;;;21.52;10.88;;;6.10;99.90;;;;;;5023256;28;20036;-63
2022/02/15 04:39:57;;;;;;;16.77;9.68;;;6.10;99.90;;;;;;5037845;28;20045;-66
2022/02/15 04:42:24;;;;;;;18.83;10.70;;;6.20;99.90;;;;;;5006072;28;20049;-66
2022/02/15 04:44:55;;;;;;;15.60;11.65;;;6.10;99.90;;;;;;5024853;28;20056;-65
2022/02/15 04:47:45;;;;;;;20.75;11.25;;;6.20;99.90;;;;;;5034312;28;20478;-63
2022/02/15 04:50:12;;;;;;;18.80;10.90;;;6.10;99.90;;;;;;5024315;28;20049;-62
2022/02/15 04:52:40;;;;;;;21.83;11.63;;;6.10;99.90;;;;;;5041654;28;20682;-66
2022/02/15 04:55:12;;;;;;;17.73;11.82;;;6.10;99.90;;;;;;5026740;28;20421;-66
2022/02/15 04:57:40;;;;;;;22.92;10.63;;;6.10;99.90;;;;;;4993484;28;20045;-68
2022/02/15 05:00:09;;;;;;;18.10;11.40;;;6.20;99.90;;;;;;4993477;28;20043;-67
2022/02/15 05:02:54;;;;;;;21.55;11.45;;;6.10;99.90;;;;;;5041515;28;20056;-66
2022/02/15 05:05:21;;;;;;;22.55;11.57;;;6.10;99.90;;;;;;5024490;28;20046;-66
2022/02/15 05:07:47;;;;;;;16.35;10.85;;;6.10;99.90;;;;;;5024403;28;20052;-66
2022/02/15 05:10:13;;;;;;;17.58;10.27;;;6.10;99.90;;;;;;5007669;28;20632;-66
2022/02/15 05:12:43;;;;;;;23.08;12.05;;;6.10;99.90;;;;;;5024748;28;20523;-66
2022/02/15 05:15:10;;;;;;;22.50;12.02;;;6.10;99.90;;;;;;5025102;28;20523;-66
2022/02/15 05:17:56;;;;;;;22.75;11.07;;;6.10;99.90;;;;;;5040445;28;20037;-66
2022/02/15 05:20:22;;;;;;;21.67;10.65;;;6.10;99.90;;;;;;5026159;28;20397;-67
2022/02/15 05:22:51;;;;;;;19.23;11.13;;;6.10;99.90;;;;;;5024108;28;20053;-65
2022/02/15 05:25:17;;;;;;;23.25;11.80;;;6.10;99.90;;;;;;5025705;28;20059;-65
2022/02/15 05:27:44;;;;;;;23.48;10.13;;;6.10;99.90;;;;;;5043257;28;20048;-65
2022/02/15 05:30:18;;;;;;;23.73;11.65;;;6.00;99.90;;;;;;5023951;28;20614;-66
2022/02/15 05:32:54;;;;;;;21.13;13.48;;;6.00;99.90;;;;;;5055842;28;20471;-65
2022/02/15 05:35:21;;;;;;;24.67;12.18;;;6.00;99.90;;;;;;5024463;28;20095;-66
2022/02/15 05:37:47;;;;;;;22.65;12.95;;;6.00;99.90;;;;;;5039148;28;20068;-66
2022/02/15 05:40:18;;;;;;;23.30;12.70;;;6.00;99.90;;;;;;5024235;28;20127;-66
2022/02/15 05:42:52;;;;;;;26.80;14.13;;;6.00;99.90;;;;;;5011731;28;20056;-63
2022/02/15 05:45:18;;;;;;;23.90;12.00;;;6.00;99.90;;;;;;5024209;28;20053;-63
2022/02/15 05:48:00;;;;;;;24.80;14.38;;;6.00;99.90;;;;;;4993136;28;20044;-64
2022/02/15 05:53:20;;;;;;;26.08;13.38;;;6.10;99.90;;;;;;5020541;28;20128;-64
2022/02/15 05:55:55;;;;;;;24.58;13.77;;;6.10;99.90;;;;;;5041168;28;20355;-64
2022/02/15 05:58:28;;;;;;;19.98;13.77;;;6.10;99.90;;;;;;5040035;28;20075;-64
2022/02/15 06:00:54;;;;;;;23.40;13.65;;;6.00;99.90;;;;;;5023862;28;20036;-64
2022/02/15 06:06:08;;;;;;;25.55;14.68;;;6.00;99.90;;;;;;4995429;28;20121;-64
2022/02/15 06:08:35;;;;;;;26.25;15.85;;;6.10;99.90;;;;;;5007869;28;20049;-64
2022/02/15 06:11:05;;;;;;;29.75;15.30;;;6.10;99.90;;;;;;5005386;28;20454;-63
2022/02/15 06:13:38;;;;;;;23.33;14.95;;;6.10;99.90;;;;;;5006885;28;20086;-66
2022/02/15 06:16:10;;;;;;;28.02;16.08;;;6.10;99.90;;;;;;5023927;28;20044;-65
2022/02/15 06:18:50;;;;;;;22.92;14.82;;;6.10;99.90;;;;;;5023215;28;20041;-63
2022/02/15 06:21:17;;;;;;;24.15;16.48;;;6.00;99.90;;;;;;5023903;28;20431;-63
2022/02/15 06:23:43;;;;;;;27.27;15.55;;;6.00;99.90;;;;;;5034313;28;20045;-64
2022/02/15 06:26:12;;;;;;;29.25;15.80;;;6.00;99.90;;;;;;5022086;28;20296;-62
2022/02/15 06:29:01;;;;;;;26.05;15.68;;;6.00;99.90;;;;;;5032593;28;20056;-62
2022/02/15 06:31:35;;;;;;;26.45;17.30;;;6.00;99.90;;;;;;5024000;28;20125;-63
2022/02/15 06:34:03;;;;;;;30.77;18.20;;;6.00;99.90;;;;;;5035483;28;20060;-66
2022/02/15 06:36:30;;;;;;;31.70;17.52;;;6.00;99.90;;;;;;5022939;28;20515;-66
2022/02/15 06:38:58;;;;;;;33.25;20.15;;;6.00;99.90;;;;;;5007288;28;20037;-66
2022/02/15 06:41:24;;;;;;;27.98;17.67;;;6.00;99.90;;;;;;5041456;28;20798;-66
2022/02/15 06:44:00;;;;;;;31.50;19.17;;;6.00;99.90;;;;;;5007174;28;20681;-66
2022/02/15 06:46:36;;;;;;;34.47;19.83;;;6.00;99.90;;;;;;5039906;28;20059;-68
2022/02/15 06:49:12;;;;;;;35.60;20.20;;;6.10;99.90;;;;;;5024218;28;20049;-66
2022/02/15 06:51:39;;;;;;;31.55;21.20;;;6.10;99.90;;;;;;5023662;28;20053;-66
2022/02/15 06:54:13;;;;;;;37.80;22.88;;;6.10;99.90;;;;;;5008499;28;20139;-66
2022/02/15 06:56:48;;;;;;;38.15;23.15;;;6.10;99.90;;;;;;5023299;28;20099;-63
2022/02/15 06:59:22;;;;;;;34.05;22.33;;;6.10;99.90;;;;;;5024477;28;20502;-66
2022/02/15 07:01:50;;;;;;;41.67;25.13;;;6.10;99.90;;;;;;5026248;28;20139;-66
2022/02/15 07:04:16;;;;;;;37.45;24.35;;;6.10;99.90;;;;;;5041642;28;20504;-65
2022/02/15 07:06:44;;;;;;;38.72;24.58;;;6.00;99.90;;;;;;5009246;28;20536;-62
2022/02/15 07:09:11;;;;;;;38.17;25.35;;;6.10;99.90;;;;;;5036520;28;20107;-62
2022/02/15 07:12:00;;;;;;;41.38;25.38;;;6.10;99.90;;;;;;5027597;28;20554;-63
2022/02/15 07:14:27;;;;;;;37.25;24.40;;;6.10;99.90;;;;;;5020443;28;20053;-63
2022/02/15 07:16:58;;;;;;;35.83;25.23;;;6.10;99.90;;;;;;5036441;28;20049;-63
2022/02/15 07:19:29;;;;;;;40.40;26.83;;;6.10;99.90;;;;;;5007162;28;20049;-63
2022/02/15 07:22:19;;;;;;;38.42;24.45;;;6.10;99.90;;;;;;5009277;28;20497;-63
2022/02/15 07:25:04;;;;;;;45.50;26.48;;;6.20;99.90;;;;;;5036365;28;20508;-63
2022/02/15 07:27:40;;;;;;;43.30;26.67;;;6.20;99.90;;;;;;5020883;28;20045;-63
2022/02/15 07:30:10;;;;;;;38.58;26.35;;;6.20;99.90;;;;;;5027703;28;20127;-63
2022/02/15 07:32:57;;;;;;;41.08;25.88;;;6.20;99.90;;;;;;4994201;28;20055;-63
2022/02/15 07:35:25;;;;;;;43.10;27.55;;;6.30;99.90;;;;;;5024130;28;20060;-63
2022/02/15 07:37:52;;;;;;;43.70;26.95;;;6.30;99.90;;;;;;5022623;28;20566;-63
2022/02/15 07:40:22;;;;;;;45.92;27.00;;;6.40;99.90;;;;;;5022813;28;20484;-63
2022/02/15 07:42:49;;;;;;;38.58;26.05;;;6.40;99.90;;;;;;5038594;28;20045;-65
2022/02/15 07:45:20;;;;;;;37.75;25.90;;;6.40;99.90;;;;;;4992477;28;20057;-62
2022/02/15 07:47:51;;;;;;;40.83;26.73;;;6.40;99.90;;;;;;5039888;28;20049;-62
2022/02/15 07:50:20;;;;;;;41.08;28.48;;;6.40;99.90;;;;;;5038780;28;20048;-62
2022/02/15 07:52:47;;;;;;;37.40;25.20;;;6.40;99.90;;;;;;5006108;28;20107;-62
2022/02/15 07:55:14;;;;;;;42.00;26.60;;;6.50;99.90;;;;;;5006122;28;20080;-63
2022/02/15 07:57:41;;;;;;;39.83;27.67;;;6.50;99.90;;;;;;5041497;28;20434;-63
2022/02/15 08:00:08;;;;;;;40.47;26.05;;;6.50;99.90;;;;;;5040809;28;20124;-64
2022/02/15 08:02:38;;;;;;;39.80;25.38;;;6.50;99.90;;;;;;5042612;28;20411;-64
2022/02/15 08:05:05;;;;;;;38.78;26.30;;;6.50;99.90;;;;;;5008205;28;20435;-64
2022/02/15 08:07:32;;;;;;;41.38;25.45;;;6.50;99.90;;;;;;5024964;28;20045;-64
2022/02/15 08:10:02;;;;;;;40.20;27.63;;;6.60;99.90;;;;;;5025441;28;20377;-64
2022/02/15 08:12:28;;;;;;;39.97;26.55;;;6.50;99.90;;;;;;5041808;28;20339;-63
2022/02/15 08:14:54;;;;;;;44.63;27.08;;;6.60;99.90;;;;;;5007212;28;20045;-64
2022/02/15 08:17:21;;;;;;;38.03;26.25;;;6.60;99.90;;;;;;5026943;28;20057;-63
2022/02/15 08:19:47;;;;;;;37.90;26.23;;;6.60;99.90;;;;;;5046549;28;20044;-63
2022/02/15 08:22:13;;;;;;;36.78;26.40;;;6.60;99.90;;;;;;5046430;28;20045;-61
2022/02/15 08:24:39;;;;;;;43.17;26.45;;;6.60;99.90;;;;;;5045137;28;20041;-65
2022/02/15 08:27:05;;;;;;;39.47;24.45;;;6.60;99.90;;;;;;5027476;28;20048;-65
2022/02/15 08:29:32;;;;;;;38.42;24.48;;;6.70;99.90;;;;;;5044060;28;20045;-66
2022/02/15 08:32:00;;;;;;;34.20;24.83;;;6.70;99.90;;;;;;5044364;28;20044;-62
2022/02/15 08:34:26;;;;;;;31.92;22.23;;;6.70;99.90;;;;;;5044331;28;20540;-65
2022/02/15 08:36:52;;;;;;;36.92;24.17;;;6.80;99.90;;;;;;5028082;28;20060;-65
2022/02/15 08:39:19;;;;;;;32.05;24.02;;;6.80;99.90;;;;;;5043860;28;20052;-62
2022/02/15 08:41:45;;;;;;;30.80;22.50;;;6.90;99.90;;;;;;5045747;28;20047;-66
2022/02/15 08:44:12;;;;;;;35.13;22.83;;;6.90;99.90;;;;;;5043687;28;20056;-65
2022/02/15 08:46:38;;;;;;;30.90;23.27;;;6.90;99.90;;;;;;5044338;28;20056;-65
2022/02/15 08:49:04;;;;;;;31.65;22.83;;;7.00;99.90;;;;;;5010910;28;20041;-65
2022/02/15 08:51:34;;;;;;;36.08;23.77;;;7.10;99.90;;;;;;5011466;28;20071;-65
2022/02/15 08:54:01;;;;;;;31.13;21.50;;;7.10;99.90;;;;;;5043171;28;20056;-65
2022/02/15 08:56:28;;;;;;;38.40;22.30;;;7.20;99.90;;;;;;5027811;28;20052;-65
2022/02/15 08:58:54;;;;;;;33.70;22.67;;;7.20;99.90;;;;;;5043841;28;20048;-65
2022/02/15 09:01:21;;;;;;;33.20;20.17;;;7.30;99.90;;;;;;5027430;28;20044;-65
2022/02/15 09:03:47;;;;;;;32.38;19.52;;;7.30;99.90;;;;;;5045240;28;20504;-65
2022/02/15 09:06:13;;;;;;;29.00;19.23;;;7.40;99.90;;;;;;5026818;28;20061;-67
2022/02/15 09:08:39;;;;;;;27.55;17.23;;;7.40;99.90;;;;;;5027610;28;20037;-62
2022/02/15 09:11:05;;;;;;;25.10;17.85;;;7.40;99.90;;;;;;5027921;28;20496;-62
2022/02/15 09:13:32;;;;;;;27.05;17.30;;;7.50;99.90;;;;;;5044290;28;20071;-63
2022/02/15 09:15:58;;;;;;;23.48;16.67;;;7.50;99.90;;;;;;5044361;28;20559;-63
2022/02/15 09:18:25;;;;;;;25.20;14.98;;;7.60;99.90;;;;;;5011111;28;20162;-62
2022/02/15 09:20:51;;;;;;;24.45;14.93;;;7.60;99.90;;;;;;5027163;28;20087;-63
2022/02/15 09:23:17;;;;;;;21.77;13.57;;;7.70;99.90;;;;;;5045066;28;20048;-63
2022/02/15 09:25:43;;;;;;;21.83;13.75;;;7.70;99.90;;;;;;5043076;28;20084;-63
2022/02/15 09:28:11;;;;;;;22.50;13.90;;;7.70;99.90;;;;;;5044204;28;20071;-62
2022/02/15 09:30:37;;;;;;;20.88;13.55;;;7.80;99.90;;;;;;5043472;28;20238;-66
2022/02/15 09:33:04;;;;;;;23.30;13.60;;;7.90;99.90;;;;;;5010516;28;20400;-63
2022/02/15 09:35:30;;;;;;;19.80;13.57;;;8.00;99.90;;;;;;5025902;28;20138;-63
2022/02/15 09:37:56;;;;;;;22.80;14.60;;;8.10;99.90;;;;;;5042947;28;20041;-62
2022/02/15 09:40:22;;;;;;;21.75;14.48;;;8.20;99.90;;;;;;5043794;28;20056;-62
2022/02/15 09:42:49;;;;;;;16.05;12.73;;;8.20;99.90;;;;;;5042798;28;20131;-62
2022/02/15 09:45:15;;;;;;;19.55;12.38;;;8.20;99.90;;;;;;5026381;28;20583;-63
2022/02/15 09:47:44;;;;;;;20.10;12.52;;;8.10;99.90;;;;;;5044839;28;20049;-63
2022/02/15 09:50:11;;;;;;;18.58;12.43;;;8.10;99.90;;;;;;5044628;28;20048;-63
2022/02/15 09:52:45;;;;;;;20.20;12.73;;;8.00;99.90;;;;;;5026159;28;20053;-65
2022/02/15 09:55:12;;;;;;;16.25;11.43;;;7.90;99.90;;;;;;5026583;28;20288;-65
2022/02/15 09:57:39;;;;;;;15.25;9.80;;;8.00;99.90;;;;;;5026102;28;20049;-65
2022/02/15 10:00:06;;;;;;;20.38;11.35;;;8.00;99.90;;;;;;5044212;28;20052;-65
2022/02/15 10:02:39;;;;;;;18.17;9.55;;;8.10;99.90;;;;;;5043659;28;20327;-62
2022/02/15 10:05:10;;;;;;;20.27;9.23;;;8.20;99.90;;;;;;5043034;28;20424;-66
2022/02/15 10:07:47;;;;;;;15.80;8.50;;;8.20;99.90;;;;;;5043603;28;20412;-65
2022/02/15 10:10:26;;;;;;;16.08;8.55;;;8.10;99.90;;;;;;5010385;28;20068;-65
2022/02/15 10:13:05;;;;;;;14.65;8.50;;;8.20;99.90;;;;;;5042682;28;20075;-67
2022/02/15 10:15:37;;;;;;;19.80;9.70;;;8.30;99.90;;;;;;5041725;28;20055;-66
2022/02/15 10:18:25;;;;;;;14.55;8.07;;;8.30;99.90;;;;;;5044156;28;20045;-66
2022/02/15 10:20:57;;;;;;;18.30;8.00;;;8.20;99.90;;;;;;5042456;28;20040;-66
2022/02/15 10:23:29;;;;;;;;;;;8.30;99.90;;;;;;5044978;28;20049;-66
2022/02/15 10:25:56;;;;;;;15.18;6.93;;;8.20;99.90;;;;;;5005704;28;20042;-66
2022/02/15 10:28:25;;;;;;;11.95;6.53;;;8.30;99.90;;;;;;5038854;28;20450;-64
2022/02/15 10:31:03;;;;;;;12.57;6.70;;;8.30;99.90;;;;;;5038372;28;20413;-67
2022/02/15 10:33:38;;;;;;;15.43;7.57;;;8.30;99.90;;;;;;5038427;28;20057;-65
2022/02/15 10:36:10;;;;;;;16.65;7.43;;;8.30;99.90;;;;;;5001461;28;20049;-65
2022/02/15 10:39:02;;;;;;;16.25;6.85;;;8.50;99.90;;;;;;5036763;28;20121;-62
2022/02/15 10:41:33;;;;;;;12.95;6.30;;;8.40;99.90;;;;;;5035683;28;20654;-62
2022/02/15 10:44:00;;;;;;;13.18;6.35;;;8.50;99.90;;;;;;5036354;28;20257;-63
2022/02/15 10:46:31;;;;;;;13.27;6.07;;;8.60;99.90;;;;;;5038961;28;20053;-63
2022/02/15 10:48:59;;;;;;;13.20;5.55;;;8.70;99.90;;;;;;5038979;28;20136;-65
2022/02/15 10:51:27;;;;;;;12.00;5.57;;;8.70;99.90;;;;;;5030910;28;20049;-63
2022/02/15 10:53:53;;;;;;;11.63;5.68;;;8.60;99.90;;;;;;5041156;28;20525;-65
2022/02/15 10:56:20;;;;;;;11.63;5.88;;;8.70;99.90;;;;;;5024430;28;20371;-67
2022/02/15 10:58:46;;;;;;;11.43;5.80;;;8.70;99.90;;;;;;5036740;28;20087;-65
2022/02/15 11:01:13;;;;;;;12.10;5.00;;;8.60;99.90;;;;;;5040381;28;20044;-66
2022/02/15 11:03:41;;;;;;;12.18;5.55;;;8.60;99.90;;;;;;5056992;28;20084;-65
2022/02/15 11:06:09;;;;;;;10.55;5.78;;;8.60;99.90;;;;;;5051650;28;20045;-65
2022/02/15 11:08:37;;;;;;;10.18;5.53;;;8.60;99.90;;;;;;5042336;28;20079;-65
2022/02/15 11:11:17;;;;;;;12.30;5.25;;;8.40;99.90;;;;;;5025556;28;20042;-65
2022/02/15 11:13:45;;;;;;;9.25;5.28;;;8.30;99.90;;;;;;5041505;28;20131;-62
2022/02/15 11:16:22;;;;;;;9.77;4.22;;;8.20;99.90;;;;;;5040306;28;20053;-61
2022/02/15 11:18:48;;;;;;;9.82;3.80;;;8.10;99.90;;;;;;5034028;28;20067;-65
2022/02/15 11:21:23;;;;;;;10.45;3.78;;;8.00;99.90;;;;;;5039199;28;20582;-66
2022/02/15 11:23:59;;;;;;;10.65;4.03;;;8.10;99.90;;;;;;5041658;28;20400;-62
2022/02/15 11:26:55;;;;;;;9.90;4.63;;;8.10;99.90;;;;;;5037220;28;20575;-65
2022/02/15 11:29:24;;;;;;;11.63;4.00;;;8.20;99.90;;;;;;5031168;28;20041;-62
2022/02/15 11:31:53;;;;;;;9.80;3.85;;;8.10;99.90;;;;;;5039321;28;20782;-66
2022/02/15 11:34:30;;;;;;;8.45;3.63;;;8.70;99.90;;;;;;5004562;28;20064;-65
2022/02/15 11:36:56;;;;;;;11.48;4.40;;;8.60;99.90;;;;;;5037284;28;20056;-61
2022/02/15 11:39:24;;;;;;;8.95;3.83;;;8.50;99.90;;;;;;5038814;28;20049;-61
2022/02/15 11:41:53;;;;;;;12.73;4.05;;;8.40;99.90;;;;;;5023349;28;20049;-62
2022/02/15 11:44:33;;;;;;;10.70;3.75;;;8.40;99.90;;;;;;5037587;28;20060;-62
2022/02/15 11:47:14;;;;;;;12.43;4.13;;;8.50;99.90;;;;;;5034722;28;20064;-62
2022/02/15 11:49:55;;;;;;;7.82;3.25;;;8.60;99.90;;;;;;5039035;28;20451;-65
2022/02/15 11:52:23;;;;;;;8.43;2.80;;;9.50;99.90;;;;;;5005883;28;20053;-62
2022/02/15 11:54:50;;;;;;;10.18;3.60;;;10.20;99.90;;;;;;5040279;28;20072;-62
2022/02/15 11:57:16;;;;;;;9.75;3.70;;;10.30;99.90;;;;;;5024652;28;20427;-63
2022/02/15 11:59:51;;;;;;;8.38;2.83;;;10.40;99.90;;;;;;5040229;28;20087;-61
2022/02/15 12:02:17;;;;;;;12.18;3.95;;;10.10;99.90;;;;;;5023967;28;20048;-61
2022/02/15 12:05:15;;;;;;;10.85;2.60;;;9.90;99.90;;;;;;5026465;28;20045;-62
2022/02/15 12:07:43;;;;;;;9.15;2.85;;;10.30;99.90;;;;;;5026303;28;20429;-62
2022/02/15 12:10:09;;;;;;;7.68;3.13;;;11.00;99.90;;;;;;5021914;28;20041;-62
2022/02/15 12:12:36;;;;;;;9.45;2.55;;;11.20;99.90;;;;;;5042829;28;20052;-62
2022/02/15 12:15:06;;;;;;;7.15;2.40;;;11.00;99.90;;;;;;5023355;28;20385;-62
2022/02/15 12:17:37;;;;;;;7.93;3.42;;;10.90;99.90;;;;;;5038292;28;20053;-62
2022/02/15 12:20:04;;;;;;;7.07;2.20;;;10.90;99.90;;;;;;5006900;28;20621;-62
2022/02/15 12:22:30;;;;;;;5.82;1.85;;;11.00;99.90;;;;;;5020716;28;20765;-62
2022/02/15 12:25:09;;;;;;;6.35;1.92;;;10.80;99.90;;;;;;5039096;28;20048;-62
2022/02/15 12:27:41;;;;;;;9.13;1.80;;;10.30;99.90;;;;;;5041056;28;20382;-62
2022/02/15 12:30:13;;;;;;;7.32;2.30;;;9.90;99.90;;;;;;5038115;28;20052;-61
2022/02/15 12:32:46;;;;;;;9.60;2.10;;;10.50;99.90;;;;;;5040954;28;20079;-61
2022/02/15 12:35:23;;;;;;;7.40;2.08;;;11.30;99.90;;;;;;5038767;28;20110;-62
2022/02/15 12:37:50;;;;;;;9.82;1.90;;;11.60;92.10;;;;;;5036924;28;20455;-62
2022/02/15 12:40:17;;;;;;;8.50;2.35;;;11.40;99.90;;;;;;5037121;28;20044;-62
2022/02/15 12:42:43;;;;;;;6.00;1.60;;;11.90;99.90;;;;;;5023928;28;20044;-62
2022/02/15 12:45:11;;;;;;;5.38;1.80;;;11.90;93.30;;;;;;5024354;28;20175;-63
2022/02/15 12:47:40;;;;;;;8.73;2.08;;;11.90;70.40;;;;;;5023450;28;20047;-62
2022/02/15 12:50:12;;;;;;;5.90;1.90;;;12.00;72.60;;;;;;5039418;28;20047;-61
2022/02/15 12:52:40;;;;;;;7.05;1.98;;;12.00;73.50;;;;;;5041202;28;20453;-62
2022/02/15 12:55:24;;;;;;;5.18;1.55;;;11.70;68.40;;;;;;5040619;28;20059;-62
2022/02/15 12:57:51;;;;;;;6.40;1.67;;;11.90;67.90;;;;;;5038213;28;20061;-61
2022/02/15 13:00:20;;;;;;;4.50;1.38;;;12.00;67.40;;;;;;5023398;28;20103;-62
2022/02/15 13:02:49;;;;;;;6.03;1.40;;;11.70;68.90;;;;;;5039217;28;20053;-62